createdAt,value
2023-01-01T00:00:49.339Z,98937.62
2023-01-01T00:03:37.421Z,98932.81
2023-01-01T00:06:14.183Z,98926.34
2023-01-01T00:08:41.909Z,98922.84
2023-01-01T00:11:10.425Z,98923.66
2023-01-01T00:13:40.249Z,98924.48
2023-01-01T00:16:10.789Z,98925.32
2023-01-01T00:18:39.126Z,98915.49
2023-01-01T00:21:10.394Z,98919.41
2023-01-01T00:23:39.035Z,98915.45
2023-01-01T00:26:15.808Z,98915.27
2023-01-01T00:28:44.859Z,98924.31
2023-01-01T00:31:17.225Z,98919.31
2023-01-01T00:33:55.420Z,98918.83
2023-01-01T00:36:25.138Z,98921.94
2023-01-01T00:38:53.268Z,98919.17
2023-01-01T00:41:21.371Z,98923.30
2023-01-01T00:43:49.109Z,98927.76
2023-01-01T00:46:16.819Z,98930.10
2023-01-01T00:48:44.680Z,98930.09
2023-01-01T00:51:12.315Z,98935.84
2023-01-01T00:53:40.069Z,98941.58
2023-01-01T00:56:07.900Z,98944.48
2023-01-01T00:58:35.607Z,98945.08
2023-01-01T01:01:03.947Z,98950.92
2023-01-01T01:03:31.931Z,98954.95
2023-01-01T01:06:02.645Z,98957.69
2023-01-01T01:08:32.461Z,98951.71
2023-01-01T01:11:08.193Z,98960.93
2023-01-01T01:13:36.257Z,98962.78
2023-01-01T01:16:15.016Z,98968.71
2023-01-01T01:18:43.459Z,98971.11
2023-01-01T01:21:15.009Z,98973.98
2023-01-01T01:23:42.747Z,98975.95
2023-01-01T01:26:19.373Z,98975.20
2023-01-01T01:28:49.783Z,98974.00
2023-01-01T01:31:20.199Z,98973.69
2023-01-01T01:33:48.821Z,98975.34
2023-01-01T01:36:17.749Z,98972.00
2023-01-01T01:38:45.695Z,98974.99
2023-01-01T01:41:28.738Z,98963.63
2023-01-01T01:44:03.041Z,98962.64
2023-01-01T01:46:40.358Z,98963.14
2023-01-01T01:49:34.514Z,98959.45
2023-01-01T01:52:02.273Z,98956.05
2023-01-01T01:54:30.269Z,98961.56
2023-01-01T01:57:02.010Z,98954.97
2023-01-01T01:59:32.293Z,98950.04
2023-01-01T02:02:00.666Z,98949.95
2023-01-01T02:04:28.897Z,98944.34
2023-01-01T02:06:56.605Z,98948.04
2023-01-01T02:09:24.431Z,98955.61
2023-01-01T02:11:52.042Z,98951.16
2023-01-01T02:14:19.666Z,98957.83
2023-01-01T02:16:51.516Z,98951.98
2023-01-01T02:19:47.111Z,98954.73
2023-01-01T02:22:17.416Z,98952.13
2023-01-01T02:24:55.718Z,98942.80
2023-01-01T02:27:23.322Z,98948.42
2023-01-01T02:30:06.129Z,98950.84
2023-01-01T02:32:42.132Z,98946.02
2023-01-01T02:35:36.989Z,98954.11
2023-01-01T02:38:15.588Z,98950.11
2023-01-01T02:40:50.988Z,98950.20
2023-01-01T02:43:24.462Z,98954.33
2023-01-01T02:45:56.488Z,98957.70
2023-01-01T02:48:47.297Z,98948.97
2023-01-01T02:51:39.515Z,98947.91
2023-01-01T02:54:19.285Z,98951.55
2023-01-01T02:57:21.261Z,98951.69
2023-01-01T03:00:14.818Z,98957.84
2023-01-01T03:03:14.062Z,98962.73
2023-01-01T03:06:26.967Z,98968.25
2023-01-01T03:09:09.785Z,98966.36
2023-01-01T03:11:39.698Z,98969.14
2023-01-01T03:14:16.278Z,98969.05
2023-01-01T03:17:00.150Z,98966.20
2023-01-01T03:19:30.406Z,98965.02
2023-01-01T03:22:02.213Z,98965.14
2023-01-01T03:24:43.528Z,98967.81
2023-01-01T03:27:20.883Z,98967.05
2023-01-01T03:29:51.155Z,98971.77
2023-01-01T03:32:22.906Z,98972.66
2023-01-01T03:34:54.068Z,98971.41
2023-01-01T03:37:27.101Z,98974.31
2023-01-01T03:39:58.044Z,98969.84
2023-01-01T03:42:37.015Z,98975.92
2023-01-01T03:45:09.491Z,98975.98
2023-01-01T03:47:37.449Z,98975.85
2023-01-01T03:50:06.774Z,98978.53
2023-01-01T03:52:49.369Z,98979.77
2023-01-01T03:55:19.534Z,98979.15
2023-01-01T03:58:04.026Z,98975.89
2023-01-01T04:00:38.413Z,98981.31
2023-01-01T04:03:16.138Z,98985.81
2023-01-01T04:05:44.251Z,98986.19
2023-01-01T04:08:12.998Z,98986.95
2023-01-01T04:10:47.413Z,98988.48
2023-01-01T04:13:15.722Z,98996.73
2023-01-01T04:15:43.367Z,99003.39
2023-01-01T04:18:11.020Z,99003.54
2023-01-01T04:20:38.769Z,99005.19
2023-01-01T04:23:06.449Z,99007.64
2023-01-01T04:25:34.231Z,99001.77
2023-01-01T04:28:04.911Z,99002.33
2023-01-01T04:30:32.840Z,99006.39
2023-01-01T04:33:00.693Z,99005.57
2023-01-01T04:35:28.543Z,99003.21
2023-01-01T04:37:56.299Z,99011.77
2023-01-01T04:40:23.938Z,99015.25
2023-01-01T04:42:54.221Z,99013.73
2023-01-01T04:45:21.927Z,99016.89
2023-01-01T04:47:49.599Z,99016.36
2023-01-01T04:50:17.274Z,99016.08
2023-01-01T04:52:44.967Z,99012.98
2023-01-01T04:55:12.608Z,99016.16
2023-01-01T04:57:40.554Z,99023.70
2023-01-01T05:00:08.927Z,99025.16
2023-01-01T05:02:36.732Z,99030.81
2023-01-01T05:05:04.956Z,99035.74
2023-01-01T05:07:33.439Z,99039.07
2023-01-01T05:10:01.129Z,99027.69
2023-01-01T05:12:30.012Z,99031.96
2023-01-01T05:14:57.681Z,99033.27
2023-01-01T05:17:25.324Z,99038.16
2023-01-01T05:19:52.967Z,99035.36
2023-01-01T05:22:21.263Z,99038.48
2023-01-01T05:24:48.851Z,99037.23
2023-01-01T05:27:16.554Z,99038.70
2023-01-01T05:29:44.209Z,99046.50
2023-01-01T05:37:05.087Z,99039.11
2023-01-01T05:39:32.813Z,99045.39
2023-01-01T05:42:00.427Z,99054.65
2023-01-01T05:44:28.181Z,99056.02
2023-01-01T05:46:55.806Z,99056.08
2023-01-01T05:49:23.440Z,99058.56
2023-01-01T05:51:51.043Z,99063.27
2023-01-01T05:56:45.241Z,99072.28
2023-01-01T05:59:12.946Z,99073.88
2023-01-01T06:01:45.394Z,99075.77
2023-01-01T06:04:13.946Z,99075.73
2023-01-01T06:06:41.758Z,99074.67
2023-01-01T06:09:10.085Z,99074.41
2023-01-01T06:11:37.928Z,99082.19
2023-01-01T06:14:05.707Z,99088.93
2023-01-01T06:16:33.609Z,99084.13
2023-01-01T06:19:01.373Z,99082.84
2023-01-01T06:21:29.573Z,99088.96
2023-01-01T06:23:58.288Z,99092.48
2023-01-01T06:26:31.356Z,99094.06
2023-01-01T06:29:00.619Z,99095.86
2023-01-01T06:31:31.194Z,99091.15
2023-01-01T06:34:01.914Z,99092.34
2023-01-01T06:36:29.534Z,99095.05
2023-01-01T06:38:58.752Z,99100.56
2023-01-01T06:41:27.993Z,99102.21
2023-01-01T06:43:57.067Z,99102.69
2023-01-01T06:46:30.781Z,99107.09
2023-01-01T06:49:01.115Z,99100.54
2023-01-01T06:51:31.097Z,99109.76
2023-01-01T06:54:00.309Z,99113.61
2023-01-01T06:56:29.263Z,99121.54
2023-01-01T06:58:57.217Z,99125.67
2023-01-01T07:01:27.299Z,99127.98
2023-01-01T07:04:00.574Z,99131.38
2023-01-01T07:06:29.916Z,99134.45
2023-01-01T07:08:57.931Z,99133.89
2023-01-01T07:11:26.066Z,99139.36
2023-01-01T07:13:54.391Z,99139.95
2023-01-01T07:16:23.123Z,99143.39
2023-01-01T07:18:51.602Z,99143.31
2023-01-01T07:21:29.792Z,99150.98
2023-01-01T07:24:05.802Z,99151.60
2023-01-01T07:26:34.209Z,99154.39
2023-01-01T07:29:07.355Z,99159.99
2023-01-01T07:31:40.350Z,99156.59
2023-01-01T07:34:12.050Z,99161.42
2023-01-01T07:36:39.720Z,99163.64
2023-01-01T07:39:07.420Z,99165.36
2023-01-01T07:41:35.124Z,99165.02
2023-01-01T07:44:04.206Z,99169.95
2023-01-01T07:46:34.577Z,99176.10
2023-01-01T07:49:02.424Z,99183.41
2023-01-01T07:51:30.141Z,99191.11
2023-01-01T07:54:03.911Z,99191.73
2023-01-01T07:56:35.295Z,99196.59
2023-01-01T07:59:03.078Z,99202.80
2023-01-01T08:01:30.864Z,99204.51
2023-01-01T08:03:58.583Z,99204.16
2023-01-01T08:06:26.312Z,99208.16
2023-01-01T08:08:53.975Z,99208.89
2023-01-01T08:11:21.581Z,99211.80
2023-01-01T08:13:49.438Z,99210.64
2023-01-01T08:16:17.159Z,99210.73
2023-01-01T08:18:44.913Z,99215.27
2023-01-01T08:21:12.598Z,99209.89
2023-01-01T08:23:40.283Z,99212.02
2023-01-01T08:26:15.342Z,99206.33
2023-01-01T08:28:43.507Z,99206.69
2023-01-01T08:31:11.206Z,99207.55
2023-01-01T08:33:39.296Z,99209.31
2023-01-01T08:36:07.241Z,99212.77
2023-01-01T08:38:34.841Z,99214.36
2023-01-01T08:41:02.477Z,99220.30
2023-01-01T08:43:30.147Z,99225.52
2023-01-01T08:45:57.760Z,99229.39
2023-01-01T08:48:30.566Z,99234.09
2023-01-01T08:51:00.319Z,99234.21
2023-01-01T08:53:32.264Z,99238.07
2023-01-01T08:56:06.444Z,99237.51
2023-01-01T08:58:36.157Z,99247.48
2023-01-01T09:01:04.783Z,99243.63
2023-01-01T09:03:33.255Z,99245.66
2023-01-01T09:06:00.933Z,99249.27
2023-01-01T09:08:28.671Z,99251.77
2023-01-01T09:11:03.270Z,99254.52
2023-01-01T09:13:31.575Z,99245.80
2023-01-01T09:15:59.761Z,99246.13
2023-01-01T09:18:27.566Z,99245.36
2023-01-01T09:20:55.219Z,99245.96
2023-01-01T09:23:22.901Z,99243.64
2023-01-01T09:25:50.605Z,99243.07
2023-01-01T09:28:25.185Z,99249.56
2023-01-01T09:30:53.824Z,99247.71
2023-01-01T09:33:21.576Z,99250.84
2023-01-01T09:35:49.280Z,99250.27
2023-01-01T09:38:16.930Z,99250.30
2023-01-01T09:41:02.427Z,99251.23
2023-01-01T09:43:39.970Z,99249.30
2023-01-01T09:46:08.278Z,99251.21
2023-01-01T09:48:38.491Z,99248.91
2023-01-01T09:51:13.319Z,99246.48
2023-01-01T09:53:42.685Z,99249.04
2023-01-01T09:56:23.590Z,99248.73
2023-01-01T09:58:51.390Z,99248.08
2023-01-01T10:01:39.274Z,99246.24
2023-01-01T10:04:25.875Z,99242.65
2023-01-01T10:07:14.113Z,99244.97
2023-01-01T10:09:56.729Z,99250.72
2023-01-01T10:12:41.282Z,99249.17
2023-01-01T10:15:24.322Z,99241.61
2023-01-01T10:17:55.566Z,99241.35
2023-01-01T10:20:36.951Z,99242.21
2023-01-01T10:23:23.041Z,99237.30
2023-01-01T10:25:50.660Z,99237.27
2023-01-01T10:28:22.845Z,99239.61
2023-01-01T10:30:53.495Z,99242.97
2023-01-01T10:33:21.172Z,99242.05
2023-01-01T10:35:50.580Z,99238.73
2023-01-01T10:38:27.437Z,99232.11
2023-01-01T10:41:03.953Z,99228.38
2023-01-01T10:43:31.602Z,99234.74
2023-01-01T10:46:02.372Z,99232.72
2023-01-01T10:48:31.438Z,99235.00
2023-01-01T10:51:01.862Z,99229.59
2023-01-01T10:53:35.957Z,99225.39
2023-01-01T10:56:06.147Z,99222.52
2023-01-01T10:58:36.836Z,99223.22
2023-01-01T11:01:06.991Z,99219.58
2023-01-01T11:03:35.507Z,99216.66
2023-01-01T11:06:22.868Z,99210.26
2023-01-01T11:08:52.495Z,99204.95
2023-01-01T11:11:47.881Z,99207.73
2023-01-01T11:14:25.103Z,99207.90
2023-01-01T11:16:53.535Z,99205.63
2023-01-01T11:19:24.967Z,99208.02
2023-01-01T11:21:52.609Z,99206.98
2023-01-01T11:24:23.039Z,99202.77
2023-01-01T11:26:55.210Z,99206.52
2023-01-01T11:29:27.171Z,99204.79
2023-01-01T11:31:55.896Z,99209.64
2023-01-01T11:34:31.761Z,99208.27
2023-01-01T11:37:12.474Z,99203.12
2023-01-01T11:39:45.142Z,99198.38
2023-01-01T11:42:21.659Z,99191.42
2023-01-01T11:44:53.552Z,99195.23
2023-01-01T11:47:25.555Z,99190.17
2023-01-01T11:50:16.373Z,99189.85
2023-01-01T11:52:48.284Z,99194.77
2023-01-01T11:55:34.261Z,99191.27
2023-01-01T11:58:36.038Z,99186.73
2023-01-01T12:01:15.884Z,99181.16
2023-01-01T12:03:54.895Z,99176.11
2023-01-01T12:06:33.128Z,99173.86
2023-01-01T12:09:26.086Z,99170.52
2023-01-01T12:12:08.591Z,99173.44
2023-01-01T12:14:54.568Z,99173.48
2023-01-01T12:17:26.730Z,99174.05
2023-01-01T12:20:10.669Z,99173.44
2023-01-01T12:22:39.408Z,99178.79
2023-01-01T12:25:12.459Z,99190.79
2023-01-01T12:28:03.960Z,99197.06
2023-01-01T12:30:47.503Z,99197.80
2023-01-01T12:33:40.039Z,99193.86
2023-01-01T12:36:21.133Z,99200.34
2023-01-01T12:38:52.012Z,99204.33
2023-01-01T12:41:37.860Z,99207.38
2023-01-01T12:44:24.596Z,99210.66
2023-01-01T12:47:26.790Z,99217.39
2023-01-01T12:50:19.273Z,99216.52
2023-01-01T12:52:49.990Z,99219.63
2023-01-01T12:55:41.366Z,99211.73
2023-01-01T12:58:28.515Z,99215.16
2023-01-01T13:01:05.987Z,99208.96
2023-01-01T13:03:47.225Z,99212.54
2023-01-01T13:06:17.718Z,99211.05
2023-01-01T13:08:51.495Z,99207.23
2023-01-01T13:11:19.879Z,99202.35
2023-01-01T13:13:47.629Z,99199.27
2023-01-01T13:16:32.993Z,99192.34
2023-01-01T13:19:02.999Z,99188.20
2023-01-01T13:21:32.541Z,99176.66
2023-01-01T13:24:04.529Z,99183.88
2023-01-01T13:26:32.854Z,99192.89
2023-01-01T13:29:05.459Z,99199.80
2023-01-01T13:31:39.630Z,99209.73
2023-01-01T13:34:44.507Z,99212.98
2023-01-01T13:37:17.104Z,99223.48
2023-01-01T13:39:51.907Z,99225.15
2023-01-01T13:42:58.987Z,99220.97
2023-01-01T13:46:10.478Z,99220.20
2023-01-01T13:48:48.516Z,99233.45
2023-01-01T13:54:44.805Z,99255.70
2023-01-01T13:57:34.622Z,99258.41
2023-01-01T14:00:22.879Z,99265.92
2023-01-01T14:03:03.045Z,99267.35
2023-01-01T14:05:42.695Z,99281.59
2023-01-01T14:08:31.013Z,99287.32
2023-01-01T14:11:01.938Z,99292.73
2023-01-01T14:13:32.598Z,99299.05
2023-01-01T14:16:08.918Z,99302.21
2023-01-01T14:18:51.836Z,99311.89
2023-01-01T14:21:21.582Z,99315.61
2023-01-01T14:23:52.187Z,99313.84
2023-01-01T14:26:22.023Z,99317.88
2023-01-01T14:28:54.395Z,99312.19
2023-01-01T14:31:25.870Z,99309.51
2023-01-01T14:33:53.673Z,99322.39
2023-01-01T14:36:25.743Z,99333.11
2023-01-01T14:38:56.091Z,99324.77
2023-01-01T14:41:31.005Z,99324.73
2023-01-01T14:44:06.022Z,99331.83
2023-01-01T14:46:34.539Z,99340.27
2023-01-01T14:49:09.459Z,99330.65
2023-01-01T14:51:44.070Z,99328.97
2023-01-01T14:54:18.821Z,99326.02
2023-01-01T14:56:48.819Z,99324.44
2023-01-01T14:59:26.977Z,99312.98
2023-01-01T15:02:10.101Z,99309.02
2023-01-01T15:04:38.219Z,99296.48
2023-01-01T15:07:06.512Z,99298.95
2023-01-01T15:09:34.305Z,99295.23
2023-01-01T15:12:03.189Z,99298.82
2023-01-01T15:14:39.417Z,99297.21
2023-01-01T15:17:14.570Z,99295.06
2023-01-01T15:19:44.547Z,99293.11
2023-01-01T15:22:17.859Z,99284.01
2023-01-01T15:24:45.824Z,99277.79
2023-01-01T15:27:33.598Z,99280.26
2023-01-01T15:30:09.874Z,99287.75
2023-01-01T15:32:41.402Z,99297.73
2023-01-01T15:35:24.896Z,99308.55
2023-01-01T15:38:09.853Z,99316.63
2023-01-01T15:40:37.666Z,99320.85
2023-01-01T15:43:12.222Z,99320.52
2023-01-01T15:45:41.583Z,99325.80
2023-01-01T15:48:25.359Z,99340.17
2023-01-01T15:50:53.020Z,99353.85
2023-01-01T15:53:23.313Z,99372.25
2023-01-01T15:55:57.393Z,99374.33
2023-01-01T15:58:37.507Z,99387.84
2023-01-01T16:01:12.465Z,99390.21
2023-01-01T16:03:41.594Z,99400.52
2023-01-01T16:06:17.024Z,99402.20
2023-01-01T16:08:44.785Z,99401.89
2023-01-01T16:11:14.252Z,99400.00
2023-01-01T16:13:42.233Z,99396.03
2023-01-01T16:16:28.081Z,99408.99
2023-01-01T16:18:56.638Z,99401.41
2023-01-01T16:21:27.588Z,99399.91
2023-01-01T16:23:55.734Z,99402.68
2023-01-01T16:26:23.521Z,99404.48
2023-01-01T16:28:51.773Z,99405.83
2023-01-01T16:31:23.593Z,99408.61
2023-01-01T16:33:54.662Z,99411.58
2023-01-01T16:36:23.193Z,99410.69
2023-01-01T16:38:50.977Z,99406.40
2023-01-01T16:41:18.988Z,99406.39
2023-01-01T16:43:47.276Z,99402.77
2023-01-01T16:46:15.649Z,99410.27
2023-01-01T16:48:43.849Z,99411.40
2023-01-01T16:51:31.819Z,99414.41
2023-01-01T16:54:01.084Z,99413.71
2023-01-01T16:56:29.673Z,99414.02
2023-01-01T16:59:02.769Z,99417.79
2023-01-01T17:01:31.828Z,99420.41
2023-01-01T17:04:00.400Z,99412.79
2023-01-01T17:06:28.591Z,99412.77
2023-01-01T17:08:56.333Z,99406.08
2023-01-01T17:11:25.100Z,99410.56
2023-01-01T17:13:53.013Z,99412.98
2023-01-01T17:16:27.138Z,99419.63
2023-01-01T17:21:46.142Z,99426.70
2023-01-01T17:24:18.661Z,99422.77
2023-01-01T17:26:50.598Z,99425.14
2023-01-01T17:29:19.464Z,99428.64
2023-01-01T17:31:47.472Z,99430.31
2023-01-01T17:34:15.404Z,99432.66
2023-01-01T17:36:44.514Z,99432.68
2023-01-01T17:39:15.830Z,99435.73
2023-01-01T17:41:44.558Z,99443.31
2023-01-01T17:44:12.748Z,99437.65
2023-01-01T17:46:40.664Z,99442.98
2023-01-01T17:49:09.587Z,99448.30
2023-01-01T17:51:39.387Z,99443.86
2023-01-01T17:54:10.334Z,99442.05
2023-01-01T17:56:38.258Z,99442.11
2023-01-01T17:59:05.942Z,99440.50
2023-01-01T18:01:35.547Z,99444.96
2023-01-01T18:04:08.042Z,99454.64
2023-01-01T18:06:42.055Z,99452.77
2023-01-01T18:09:12.392Z,99457.81
2023-01-01T18:11:41.001Z,99466.15
2023-01-01T18:14:09.659Z,99462.27
2023-01-01T18:16:39.582Z,99466.63
2023-01-01T18:19:07.652Z,99477.59
2023-01-01T18:21:35.728Z,99471.93
2023-01-01T18:24:08.213Z,99475.14
2023-01-01T18:26:36.123Z,99482.73
2023-01-01T18:29:04.496Z,99483.07
2023-01-01T18:31:33.936Z,99483.44
2023-01-01T18:34:04.136Z,99483.44
2023-01-01T18:36:33.630Z,99484.55
2023-01-01T18:39:15.512Z,99486.22
2023-01-01T18:41:55.396Z,99488.63
2023-01-01T18:44:26.706Z,99498.91
2023-01-01T18:47:06.698Z,99497.16
2023-01-01T18:49:36.349Z,99499.35
2023-01-01T18:52:21.688Z,99493.23
2023-01-01T18:55:10.476Z,99503.85
2023-01-01T18:57:38.474Z,99504.93
2023-01-01T19:00:18.994Z,99513.87
2023-01-01T19:02:59.113Z,99511.70
2023-01-01T19:05:35.632Z,99509.61
2023-01-01T19:08:16.879Z,99511.69
2023-01-01T19:10:58.537Z,99511.71
2023-01-01T19:13:33.080Z,99517.73
2023-01-01T19:16:10.628Z,99517.30
2023-01-01T19:18:40.881Z,99517.23
2023-01-01T19:21:11.370Z,99521.73
2023-01-01T19:23:51.840Z,99525.11
2023-01-01T19:26:29.967Z,99527.06
2023-01-01T19:29:13.225Z,99523.30
2023-01-01T19:31:41.272Z,99526.09
2023-01-01T19:34:09.130Z,99528.00
2023-01-01T19:36:39.532Z,99532.87
2023-01-01T19:39:07.837Z,99533.62
2023-01-01T19:41:36.222Z,99538.29
2023-01-01T19:44:09.854Z,99540.44
2023-01-01T19:46:39.717Z,99540.16
2023-01-01T19:49:07.551Z,99543.88
2023-01-01T19:51:36.373Z,99542.40
2023-01-01T19:54:04.117Z,99538.62
2023-01-01T19:56:31.761Z,99546.67
2023-01-01T19:58:59.577Z,99547.48
2023-01-01T20:01:27.399Z,99548.70
2023-01-01T20:03:57.872Z,99547.71
2023-01-01T20:06:26.729Z,99551.16
2023-01-01T20:08:54.935Z,99553.60
2023-01-01T20:11:23.159Z,99550.94
2023-01-01T20:13:50.854Z,99556.80
2023-01-01T20:16:18.553Z,99547.84
2023-01-01T20:18:46.362Z,99544.20
2023-01-01T20:21:32.561Z,99544.66
2023-01-01T20:24:00.653Z,99547.48
2023-01-01T20:26:28.366Z,99545.95
2023-01-01T20:29:14.509Z,99549.38
2023-01-01T20:31:42.887Z,99551.41
2023-01-01T20:34:11.433Z,99552.95
2023-01-01T20:36:57.877Z,99544.57
2023-01-01T20:39:26.349Z,99545.28
2023-01-01T20:41:55.139Z,99551.98
2023-01-01T20:44:22.879Z,99552.04
2023-01-01T20:46:50.988Z,99550.67
2023-01-01T20:49:19.393Z,99553.02
2023-01-01T20:51:49.716Z,99554.58
2023-01-01T20:54:18.376Z,99559.08
2023-01-01T20:56:46.674Z,99562.04
2023-01-01T20:59:34.977Z,99567.42
2023-01-01T21:02:08.783Z,99574.80
2023-01-01T21:04:38.530Z,99577.67
2023-01-01T21:07:11.154Z,99576.93
2023-01-01T21:09:40.136Z,99580.35
2023-01-01T21:12:08.795Z,99582.20
2023-01-01T21:14:36.605Z,99586.39
2023-01-01T21:17:33.812Z,99589.08
2023-01-01T21:20:01.497Z,99591.76
2023-01-01T21:22:29.252Z,99588.79
2023-01-01T21:25:16.792Z,99588.55
2023-01-01T21:27:44.867Z,99585.51
2023-01-01T21:30:13.478Z,99582.49
2023-01-01T21:32:43.231Z,99589.70
2023-01-01T21:35:32.632Z,99590.73
2023-01-01T21:38:16.351Z,99590.73
2023-01-01T21:41:01.007Z,99587.52
2023-01-01T21:43:42.230Z,99589.69
2023-01-01T21:46:09.888Z,99595.41
2023-01-01T21:48:58.397Z,99594.70
2023-01-01T21:51:36.870Z,99597.59
2023-01-01T21:54:10.672Z,99592.03
2023-01-01T21:56:40.700Z,99597.79
2023-01-01T21:59:27.385Z,99596.06
2023-01-01T22:02:26.151Z,99598.20
2023-01-01T22:04:54.279Z,99597.95
2023-01-01T22:10:17.425Z,99599.80
2023-01-01T22:12:45.877Z,99597.98
2023-01-01T22:15:25.942Z,99600.16
2023-01-01T22:18:11.806Z,99601.05
2023-01-01T22:20:42.744Z,99603.11
2023-01-01T22:23:19.658Z,99600.20
2023-01-01T22:25:47.589Z,99605.77
2023-01-01T22:28:23.039Z,99603.14
2023-01-01T22:31:00.951Z,99603.95
2023-01-01T22:33:35.239Z,99599.73
2023-01-01T22:36:03.043Z,99597.00
2023-01-01T22:38:33.264Z,99599.64
2023-01-01T22:41:01.468Z,99594.42
2023-01-01T22:43:34.863Z,99592.20
2023-01-01T22:46:26.470Z,99591.69
2023-01-01T22:48:59.014Z,99586.80
2023-01-01T22:51:58.430Z,99587.94
2023-01-01T22:54:26.258Z,99586.77
2023-01-01T22:56:53.937Z,99583.29
2023-01-01T22:59:21.615Z,99583.08
2023-01-01T23:01:49.329Z,99581.39
2023-01-01T23:04:17.076Z,99583.27
2023-01-01T23:06:44.857Z,99585.20
2023-01-01T23:09:12.974Z,99584.33
2023-01-01T23:11:40.624Z,99584.95
2023-01-01T23:14:27.075Z,99580.13
2023-01-01T23:16:54.754Z,99578.04
2023-01-01T23:19:22.412Z,99574.51
2023-01-01T23:21:50.478Z,99577.02
2023-01-01T23:24:20.312Z,99573.48
2023-01-01T23:26:48.418Z,99579.55
2023-01-01T23:29:17.418Z,99584.84
2023-01-01T23:31:45.354Z,99582.99
2023-01-01T23:34:13.180Z,99578.59
2023-01-01T23:36:41.995Z,99576.38
2023-01-01T23:39:09.685Z,99571.78
2023-01-01T23:41:37.449Z,99572.78
2023-01-01T23:44:05.268Z,99575.00
2023-01-01T23:46:34.675Z,99571.68
2023-01-01T23:49:03.474Z,99568.20
2023-01-01T23:51:32.663Z,99567.26
2023-01-01T23:54:00.271Z,99565.41
2023-01-01T23:56:28.047Z,99566.27
2023-01-01T23:58:55.671Z,99567.68
